createdAt,value
2018-11-06T00:00:48.431Z,0.00
2018-11-06T00:01:48.420Z,0.00
2018-11-06T00:02:48.408Z,0.00
2018-11-06T00:03:48.400Z,0.00
2018-11-06T00:04:48.402Z,0.00
2018-11-06T00:05:48.379Z,0.00
2018-11-06T00:06:48.363Z,0.00
2018-11-06T00:07:48.352Z,0.00
2018-11-06T00:08:48.360Z,0.00
2018-11-06T00:09:48.360Z,0.00
2018-11-06T00:10:48.318Z,0.00
2018-11-06T00:11:48.311Z,0.00
2018-11-06T00:12:48.299Z,0.00
2018-11-06T00:13:48.284Z,0.00
2018-11-06T00:14:48.288Z,0.00
2018-11-06T00:15:48.265Z,0.00
2018-11-06T00:16:48.249Z,0.00
2018-11-06T00:17:48.242Z,0.00
2018-11-06T00:18:48.230Z,0.00
2018-11-06T00:19:48.233Z,0.00
2018-11-06T00:20:48.227Z,0.00
2018-11-06T00:21:48.192Z,0.00
2018-11-06T00:22:48.182Z,0.00
2018-11-06T00:23:48.170Z,0.00
2018-11-06T00:24:48.171Z,0.00
2018-11-06T00:25:48.152Z,0.00
2018-11-06T00:26:48.147Z,0.00
2018-11-06T00:27:48.200Z,0.00
2018-11-06T00:28:48.114Z,0.00
2018-11-06T00:29:48.118Z,0.00
2018-11-06T00:30:48.091Z,0.00
2018-11-06T00:31:48.087Z,0.00
2018-11-06T00:32:48.075Z,0.00
2018-11-06T00:33:48.065Z,0.00
2018-11-06T00:34:48.061Z,0.00
2018-11-06T00:35:48.043Z,0.00
2018-11-06T00:36:48.027Z,0.00
2018-11-06T00:37:48.015Z,0.00
2018-11-06T00:38:48.008Z,0.00
2018-11-06T00:39:48.005Z,0.00
2018-11-06T00:40:47.982Z,0.00
2018-11-06T00:41:47.970Z,0.00
2018-11-06T00:42:47.966Z,0.00
2018-11-06T00:43:47.947Z,0.00
2018-11-06T00:44:47.949Z,0.00
2018-11-06T00:45:47.924Z,0.00
2018-11-06T00:46:47.918Z,0.00
2018-11-06T00:47:47.908Z,0.00
2018-11-06T00:48:47.898Z,0.00
2018-11-06T00:49:47.891Z,0.00
2018-11-06T00:50:47.868Z,0.00
2018-11-06T00:51:47.856Z,0.00
2018-11-06T00:52:47.845Z,0.00
2018-11-06T00:53:47.834Z,0.00
2018-11-06T00:54:47.846Z,0.00
2018-11-06T00:55:47.816Z,0.00
2018-11-06T00:56:47.804Z,0.00
2018-11-06T00:57:47.791Z,0.00
2018-11-06T00:58:47.777Z,0.00
2018-11-06T00:59:47.781Z,0.00
2018-11-06T01:00:47.754Z,0.00
2018-11-06T01:01:47.743Z,0.00
2018-11-06T01:02:47.732Z,0.00
2018-11-06T01:03:47.724Z,0.00
2018-11-06T01:04:47.721Z,0.00
2018-11-06T01:05:47.713Z,0.00
2018-11-06T01:06:47.704Z,0.00
2018-11-06T01:07:47.678Z,0.00
2018-11-06T01:08:47.671Z,0.00
2018-11-06T01:09:47.668Z,0.00
2018-11-06T01:10:47.649Z,0.00
2018-11-06T01:11:47.637Z,0.00
2018-11-06T01:12:47.621Z,0.00
2018-11-06T01:13:47.614Z,0.00
2018-11-06T01:14:47.611Z,0.00
2018-11-06T01:15:47.592Z,0.00
2018-11-06T01:16:47.576Z,0.00
2018-11-06T01:17:47.565Z,0.00
2018-11-06T01:18:47.553Z,0.00
2018-11-06T01:19:47.574Z,0.00
2018-11-06T01:20:47.535Z,0.00
2018-11-06T01:21:47.524Z,0.00
2018-11-06T01:22:47.512Z,0.00
2018-11-06T01:23:47.505Z,0.00
2018-11-06T01:24:47.527Z,0.00
2018-11-06T01:25:47.477Z,0.00
2018-11-06T01:26:47.470Z,0.00
2018-11-06T01:27:47.455Z,0.00
2018-11-06T01:28:47.444Z,0.00
2018-11-06T01:29:47.485Z,0.00
2018-11-06T01:30:47.438Z,0.00
2018-11-06T01:31:47.410Z,0.00
2018-11-06T01:32:47.407Z,0.00
2018-11-06T01:33:47.395Z,0.00
2018-11-06T01:34:47.379Z,0.00
2018-11-06T01:35:47.381Z,0.00
2018-11-06T01:36:47.357Z,0.00
2018-11-06T01:37:47.349Z,0.00
2018-11-06T01:38:47.338Z,0.00
2018-11-06T01:39:47.329Z,0.00
2018-11-06T01:40:47.323Z,0.00
2018-11-06T01:41:47.309Z,0.00
2018-11-06T01:42:47.298Z,0.00
2018-11-06T01:43:47.285Z,0.00
2018-11-06T01:44:47.275Z,0.00
2018-11-06T01:45:47.279Z,0.00
2018-11-06T01:46:47.251Z,0.00
2018-11-06T01:47:47.236Z,0.00
2018-11-06T01:48:47.232Z,0.00
2018-11-06T01:49:47.201Z,0.00
2018-11-06T01:50:47.214Z,0.00
2018-11-06T01:51:47.191Z,0.00
2018-11-06T01:52:47.180Z,0.00
2018-11-06T01:53:47.176Z,0.00
2018-11-06T01:54:47.163Z,0.00
2018-11-06T01:55:47.158Z,0.00
2018-11-06T01:56:47.134Z,0.00
2018-11-06T01:57:47.123Z,0.00
2018-11-06T01:58:47.111Z,0.00
2018-11-06T01:59:47.101Z,0.00
2018-11-06T02:00:47.105Z,0.00
2018-11-06T02:01:47.077Z,0.00
2018-11-06T02:02:47.072Z,0.00
2018-11-06T02:03:47.063Z,0.00
2018-11-06T02:04:47.049Z,0.00
2018-11-06T02:05:47.048Z,0.00
2018-11-06T02:06:47.029Z,0.00
2018-11-06T02:07:47.016Z,0.00
2018-11-06T02:08:47.006Z,0.00
2018-11-06T02:09:46.996Z,0.00
2018-11-06T02:10:46.991Z,0.00
2018-11-06T02:11:46.972Z,0.00
2018-11-06T02:12:46.962Z,0.00
2018-11-06T02:13:46.946Z,0.00
2018-11-06T02:14:46.938Z,0.00
2018-11-06T02:15:46.934Z,0.00
2018-11-06T02:16:46.917Z,0.00
2018-11-06T02:17:46.900Z,0.00
2018-11-06T02:18:46.888Z,0.00
2018-11-06T02:19:46.879Z,0.00
2018-11-06T02:20:46.879Z,0.00
2018-11-06T02:21:46.855Z,0.00
2018-11-06T02:22:46.843Z,0.00
2018-11-06T02:23:46.827Z,0.00
2018-11-06T02:24:46.824Z,0.00
2018-11-06T02:25:46.821Z,0.00
2018-11-06T02:26:46.799Z,0.00
2018-11-06T02:27:46.794Z,0.00
2018-11-06T02:28:46.783Z,0.00
2018-11-06T02:29:46.771Z,0.00
2018-11-06T02:30:46.773Z,0.00
2018-11-06T02:31:46.745Z,0.00
2018-11-06T02:32:46.746Z,0.00
2018-11-06T02:33:46.722Z,0.00
2018-11-06T02:34:46.715Z,0.00
2018-11-06T02:35:46.716Z,0.00
2018-11-06T02:36:46.689Z,0.00
2018-11-06T02:37:46.680Z,0.00
2018-11-06T02:38:46.669Z,0.00
2018-11-06T02:39:46.658Z,0.00
2018-11-06T02:40:46.655Z,0.00
2018-11-06T02:41:46.632Z,0.00
2018-11-06T02:42:46.630Z,0.00
2018-11-06T02:43:46.609Z,0.00
2018-11-06T02:44:46.599Z,0.00
2018-11-06T02:45:46.609Z,0.00
2018-11-06T02:46:46.584Z,0.00
2018-11-06T02:47:46.568Z,0.00
2018-11-06T02:48:46.561Z,0.00
2018-11-06T02:49:46.544Z,0.00
2018-11-06T02:50:46.544Z,0.00
2018-11-06T02:51:46.526Z,0.00
2018-11-06T02:52:46.520Z,0.00
2018-11-06T02:53:46.502Z,0.00
2018-11-06T02:54:46.487Z,0.00
2018-11-06T02:55:46.524Z,0.00
2018-11-06T02:56:46.475Z,0.00
2018-11-06T02:57:46.462Z,0.00
2018-11-06T02:58:46.446Z,0.00
2018-11-06T02:59:46.434Z,0.00
2018-11-06T03:00:46.436Z,0.00
2018-11-06T03:01:46.416Z,0.00
2018-11-06T03:02:46.405Z,0.00
2018-11-06T03:03:46.398Z,0.00
2018-11-06T03:04:46.380Z,0.00
2018-11-06T03:05:46.379Z,0.00
2018-11-06T03:06:46.359Z,0.00
2018-11-06T03:07:46.348Z,0.00
2018-11-06T03:08:46.337Z,0.00
2018-11-06T03:09:46.322Z,0.00
2018-11-06T03:10:46.326Z,0.00
2018-11-06T03:11:46.303Z,0.00
2018-11-06T03:12:46.296Z,0.00
2018-11-06T03:13:46.284Z,0.00
2018-11-06T03:14:46.273Z,0.00
2018-11-06T03:15:46.269Z,0.00
2018-11-06T03:16:46.352Z,0.00
2018-11-06T03:17:46.239Z,0.00
2018-11-06T03:18:46.239Z,0.00
2018-11-06T03:19:46.212Z,0.00
2018-11-06T03:20:46.212Z,0.00
2018-11-06T03:21:46.193Z,0.00
2018-11-06T03:22:46.182Z,0.00
2018-11-06T03:23:46.170Z,0.00
2018-11-06T03:24:46.159Z,0.00
2018-11-06T03:25:46.159Z,0.00
2018-11-06T03:26:46.151Z,0.00
2018-11-06T03:27:46.120Z,0.00
2018-11-06T03:28:46.116Z,0.00
2018-11-06T03:29:46.102Z,0.00
2018-11-06T03:30:46.139Z,0.00
2018-11-06T03:31:46.076Z,0.00
2018-11-06T03:32:46.070Z,0.00
2018-11-06T03:33:46.053Z,0.00
2018-11-06T03:34:46.041Z,0.00
2018-11-06T03:35:46.030Z,0.00
2018-11-06T03:36:46.031Z,0.00
2018-11-06T03:37:46.013Z,0.00
2018-11-06T03:38:45.996Z,0.00
2018-11-06T03:39:45.989Z,0.00
2018-11-06T03:40:45.973Z,0.00
2018-11-06T03:41:45.974Z,0.00
2018-11-06T03:42:45.956Z,0.00
2018-11-06T03:43:45.944Z,0.00
2018-11-06T03:44:45.936Z,0.00
2018-11-06T03:45:45.921Z,0.00
2018-11-06T03:46:45.918Z,0.00
2018-11-06T03:47:45.901Z,0.00
2018-11-06T03:48:45.890Z,0.00
2018-11-06T03:49:45.879Z,0.00
2018-11-06T03:50:45.869Z,0.00
2018-11-06T03:51:45.865Z,0.00
2018-11-06T03:52:45.854Z,0.00
2018-11-06T03:53:45.834Z,0.00
2018-11-06T03:54:45.820Z,0.00
2018-11-06T03:55:45.812Z,0.00
2018-11-06T03:56:45.807Z,0.00
2018-11-06T03:57:45.789Z,0.00
2018-11-06T03:58:45.773Z,0.00
2018-11-06T03:59:45.762Z,0.00
2018-11-06T04:00:45.752Z,0.00
2018-11-06T04:01:45.755Z,0.00
2018-11-06T04:02:45.735Z,0.00
2018-11-06T04:03:45.724Z,0.00
2018-11-06T04:04:45.728Z,0.00
2018-11-06T04:05:45.698Z,0.00
2018-11-06T04:06:45.702Z,0.00
2018-11-06T04:07:45.682Z,0.00
2018-11-06T04:08:45.668Z,0.00
2018-11-06T04:09:45.651Z,0.00
2018-11-06T04:10:45.644Z,0.00
2018-11-06T04:11:45.641Z,0.00
2018-11-06T04:12:45.632Z,0.00
2018-11-06T04:13:45.608Z,0.00
2018-11-06T04:14:45.598Z,0.00
2018-11-06T04:15:45.585Z,0.00
2018-11-06T04:16:45.589Z,0.00
2018-11-06T04:17:45.565Z,0.00
2018-11-06T04:18:45.550Z,0.00
2018-11-06T04:19:45.542Z,0.00
2018-11-06T04:20:45.531Z,0.00
2018-11-06T04:21:45.529Z,0.00
2018-11-06T04:22:45.514Z,0.00
2018-11-06T04:23:45.501Z,0.00
2018-11-06T04:24:45.490Z,0.00
2018-11-06T04:25:45.480Z,0.00
2018-11-06T04:26:45.475Z,0.00
2018-11-06T04:27:45.453Z,0.00
2018-11-06T04:28:45.441Z,0.00
2018-11-06T04:29:45.434Z,0.00
2018-11-06T04:30:45.418Z,0.00
2018-11-06T04:31:45.423Z,0.00
2018-11-06T04:32:45.399Z,0.00
2018-11-06T04:33:45.388Z,0.00
2018-11-06T04:34:45.372Z,0.00
2018-11-06T04:35:45.371Z,0.00
2018-11-06T04:36:45.363Z,0.00
2018-11-06T04:37:45.347Z,0.00
2018-11-06T04:38:45.331Z,0.00
2018-11-06T04:39:45.329Z,0.00
2018-11-06T04:40:45.316Z,0.00
2018-11-06T04:41:45.312Z,0.00
2018-11-06T04:42:45.290Z,0.00
2018-11-06T04:43:45.275Z,0.00
2018-11-06T04:44:45.267Z,0.00
2018-11-06T04:45:45.256Z,0.00
2018-11-06T04:46:45.260Z,0.00
2018-11-06T04:47:45.229Z,0.00
2018-11-06T04:48:45.217Z,0.00
2018-11-06T04:49:45.210Z,0.00
2018-11-06T04:50:45.199Z,0.00
2018-11-06T04:51:45.204Z,0.00
2018-11-06T04:52:45.177Z,0.00
2018-11-06T04:53:45.168Z,0.00
2018-11-06T04:54:45.153Z,0.00
2018-11-06T04:55:45.146Z,0.00
2018-11-06T04:56:45.150Z,0.00
2018-11-06T04:57:45.123Z,0.00
2018-11-06T04:58:45.109Z,0.00
2018-11-06T04:59:45.100Z,0.00
2018-11-06T05:00:45.090Z,0.00
2018-11-06T05:01:45.096Z,0.00
2018-11-06T05:02:45.063Z,0.00
2018-11-06T05:03:45.055Z,0.00
2018-11-06T05:04:45.044Z,0.00
2018-11-06T05:05:45.033Z,0.00
2018-11-06T05:06:45.088Z,0.00
2018-11-06T05:07:45.006Z,0.00
2018-11-06T05:08:44.999Z,0.00
2018-11-06T05:09:45.000Z,0.00
2018-11-06T05:10:44.983Z,0.00
2018-11-06T05:11:44.983Z,0.00
2018-11-06T05:12:44.957Z,0.00
2018-11-06T05:13:44.999Z,0.00
2018-11-06T05:14:44.936Z,0.00
2018-11-06T05:15:44.923Z,0.00
2018-11-06T05:16:44.928Z,0.00
2018-11-06T05:17:44.896Z,0.00
2018-11-06T05:18:44.889Z,0.00
2018-11-06T05:19:44.877Z,0.00
2018-11-06T05:20:44.866Z,0.00
2018-11-06T05:21:44.886Z,0.00
2018-11-06T05:22:44.844Z,0.00
2018-11-06T05:23:44.824Z,0.00
2018-11-06T05:24:44.818Z,0.00
2018-11-06T05:25:44.809Z,0.00
2018-11-06T05:26:44.815Z,0.00
2018-11-06T05:27:44.782Z,0.00
2018-11-06T05:28:44.776Z,0.00
2018-11-06T05:29:44.763Z,0.00
2018-11-06T05:30:44.748Z,0.00
2018-11-06T05:31:44.749Z,0.00
2018-11-06T05:32:44.807Z,0.00
2018-11-06T05:33:44.714Z,0.00
2018-11-06T05:34:44.770Z,0.00
2018-11-06T05:35:44.696Z,0.00
2018-11-06T05:36:44.716Z,0.00
2018-11-06T05:37:44.679Z,0.00
2018-11-06T05:38:44.710Z,0.00
2018-11-06T05:39:44.658Z,0.00
2018-11-06T05:40:44.639Z,0.00
2018-11-06T05:41:44.627Z,0.00
2018-11-06T05:42:44.624Z,0.00
2018-11-06T05:43:44.608Z,0.00
2018-11-06T05:44:44.592Z,0.00
2018-11-06T05:45:44.806Z,0.00
2018-11-06T05:46:44.574Z,0.00
2018-11-06T05:47:44.571Z,0.00
2018-11-06T05:48:44.547Z,0.00
2018-11-06T05:49:44.541Z,0.00
2018-11-06T05:50:44.529Z,4.00
2018-11-06T05:51:44.521Z,8.00
2018-11-06T05:52:44.554Z,0.00
2018-11-06T05:53:44.504Z,0.00
2018-11-06T05:54:44.483Z,8.00
2018-11-06T05:55:44.476Z,8.00
2018-11-06T05:56:44.460Z,8.00
2018-11-06T05:57:44.470Z,4.00
2018-11-06T05:58:44.438Z,8.00
2018-11-06T05:59:44.431Z,16.00
2018-11-06T06:00:44.416Z,12.00
2018-11-06T06:01:44.402Z,16.00
2018-11-06T06:02:44.404Z,12.00
2018-11-06T06:03:44.377Z,12.00
2018-11-06T06:04:44.369Z,24.00
2018-11-06T06:05:44.358Z,28.00
2018-11-06T06:06:44.344Z,28.00
2018-11-06T06:07:44.355Z,32.00
2018-11-06T06:08:44.320Z,32.00
2018-11-06T06:09:44.312Z,40.00
2018-11-06T06:10:44.306Z,40.00
2018-11-06T06:11:44.294Z,44.00
2018-11-06T06:12:44.291Z,52.00
2018-11-06T06:13:44.267Z,56.00
2018-11-06T06:14:44.262Z,60.00
2018-11-06T06:15:44.249Z,64.00
2018-11-06T06:16:44.283Z,76.00
2018-11-06T06:17:44.230Z,76.00
2018-11-06T06:18:44.215Z,84.00
2018-11-06T06:19:44.200Z,92.00
2018-11-06T06:20:44.188Z,96.00
2018-11-06T06:21:44.180Z,108.00
2018-11-06T06:22:44.182Z,116.00
2018-11-06T06:23:44.154Z,124.00
2018-11-06T06:24:44.143Z,124.00
2018-11-06T06:25:44.136Z,132.00
2018-11-06T06:26:44.121Z,140.00
2018-11-06T06:27:44.120Z,152.00
2018-11-06T06:28:44.110Z,156.00
2018-11-06T06:29:44.090Z,168.00
2018-11-06T06:30:44.078Z,176.00
2018-11-06T06:31:44.069Z,180.00
2018-11-06T06:32:44.073Z,188.00
2018-11-06T06:33:44.049Z,196.00
2018-11-06T06:34:44.071Z,204.00
2018-11-06T06:35:44.025Z,208.00
2018-11-06T06:36:44.011Z,220.00
2018-11-06T06:37:44.007Z,224.00
2018-11-06T06:38:44.101Z,236.00
2018-11-06T06:39:43.972Z,240.00
2018-11-06T06:40:44.015Z,248.00
2018-11-06T06:41:43.950Z,248.00
2018-11-06T06:42:43.950Z,252.00
2018-11-06T06:43:43.930Z,260.00
2018-11-06T06:44:43.920Z,268.00
2018-11-06T06:45:43.904Z,276.00
2018-11-06T06:46:43.897Z,284.00
2018-11-06T06:47:43.893Z,288.00
2018-11-06T06:48:43.874Z,296.00
2018-11-06T06:49:43.862Z,296.00
2018-11-06T06:50:43.847Z,308.00
2018-11-06T06:51:43.839Z,316.00
2018-11-06T06:52:43.840Z,312.00
2018-11-06T06:53:43.819Z,324.00
2018-11-06T06:54:43.907Z,324.00
2018-11-06T06:55:43.794Z,332.00
2018-11-06T06:56:43.787Z,336.00
2018-11-06T06:57:43.783Z,344.00
2018-11-06T06:58:43.768Z,340.00
2018-11-06T06:59:43.753Z,352.00
2018-11-06T07:00:43.737Z,356.00
2018-11-06T07:01:43.726Z,364.00
2018-11-06T07:02:43.724Z,360.00
2018-11-06T07:03:43.703Z,372.00
2018-11-06T07:04:43.698Z,376.00
2018-11-06T07:05:43.684Z,388.00
2018-11-06T07:06:43.669Z,392.00
2018-11-06T07:07:43.671Z,396.00
2018-11-06T07:08:43.646Z,408.00
2018-11-06T07:09:43.639Z,416.00
2018-11-06T07:10:43.632Z,416.00
2018-11-06T07:11:43.612Z,428.00
2018-11-06T07:12:43.628Z,440.00
2018-11-06T07:13:43.593Z,452.00
2018-11-06T07:14:43.586Z,460.00
2018-11-06T07:15:43.571Z,472.00
2018-11-06T07:16:43.559Z,480.00
2018-11-06T07:17:43.556Z,492.00
2018-11-06T07:18:43.644Z,516.00
2018-11-06T07:19:43.529Z,520.00
2018-11-06T07:20:43.510Z,548.00
2018-11-06T07:21:43.499Z,576.00
2018-11-06T07:22:43.499Z,596.00
2018-11-06T07:23:43.483Z,624.00
2018-11-06T07:24:43.467Z,640.00
2018-11-06T07:25:43.454Z,644.00
2018-11-06T07:26:43.446Z,648.00
2018-11-06T07:27:43.447Z,668.00
2018-11-06T07:28:43.484Z,676.00
2018-11-06T07:29:43.412Z,688.00
2018-11-06T07:30:43.396Z,696.00
2018-11-06T07:31:43.393Z,700.00
2018-11-06T07:32:43.391Z,700.00
2018-11-06T07:33:43.372Z,708.00
2018-11-06T07:34:43.485Z,744.00
2018-11-06T07:35:43.524Z,736.00
2018-11-06T07:36:43.358Z,760.00
2018-11-06T07:37:43.333Z,960.00
2018-11-06T07:38:43.313Z,1148.00
2018-11-06T07:39:43.298Z,1088.00
2018-11-06T07:40:43.330Z,1144.00
2018-11-06T07:41:43.279Z,1416.00
2018-11-06T07:42:43.300Z,1604.00
2018-11-06T07:43:43.257Z,1580.00
2018-11-06T07:44:43.245Z,1580.00
2018-11-06T07:45:43.226Z,1524.00
2018-11-06T07:46:43.222Z,1476.00
2018-11-06T07:47:43.211Z,1512.00
2018-11-06T07:48:43.303Z,1592.00
2018-11-06T07:49:43.226Z,1636.00
2018-11-06T07:50:43.177Z,1792.00
2018-11-06T07:51:43.162Z,1848.00
2018-11-06T07:52:43.155Z,1752.00
2018-11-06T07:53:43.152Z,1540.00
2018-11-06T07:54:43.133Z,1584.00
2018-11-06T07:55:43.171Z,1616.00
2018-11-06T07:56:43.109Z,1556.00
2018-11-06T07:57:43.093Z,1628.00
2018-11-06T07:58:43.107Z,1468.00
2018-11-06T07:59:43.070Z,1168.00
2018-11-06T08:00:43.063Z,1016.00
2018-11-06T08:01:43.054Z,956.00
2018-11-06T08:02:43.037Z,932.00
2018-11-06T08:03:43.041Z,904.00
2018-11-06T08:04:43.020Z,924.00
2018-11-06T08:05:43.003Z,936.00
2018-11-06T08:06:42.992Z,944.00
2018-11-06T08:07:42.980Z,1044.00
2018-11-06T08:08:42.984Z,1204.00
2018-11-06T08:09:42.963Z,1232.00
2018-11-06T08:10:42.946Z,1200.00
2018-11-06T08:11:42.939Z,1172.00
2018-11-06T08:12:42.934Z,1224.00
2018-11-06T08:13:42.933Z,1260.00
2018-11-06T08:14:43.012Z,1316.00
2018-11-06T08:15:42.894Z,1376.00
2018-11-06T08:16:42.883Z,1432.00
2018-11-06T08:17:42.870Z,1388.00
2018-11-06T08:18:42.871Z,1300.00
2018-11-06T08:19:42.852Z,1296.00
2018-11-06T08:20:42.908Z,1344.00
2018-11-06T08:21:42.825Z,1360.00
2018-11-06T08:22:42.818Z,1228.00
2018-11-06T08:23:42.898Z,1204.00
2018-11-06T08:24:42.795Z,1268.00
2018-11-06T08:25:42.786Z,1288.00
2018-11-06T08:26:42.769Z,1292.00
2018-11-06T08:27:42.821Z,1492.00
2018-11-06T08:28:42.752Z,1576.00
2018-11-06T08:29:42.734Z,1752.00
2018-11-06T08:30:42.859Z,1788.00
2018-11-06T08:31:43.071Z,2072.00
2018-11-06T08:32:43.022Z,2488.00
2018-11-06T08:33:42.714Z,2536.00
2018-11-06T08:34:42.682Z,2500.00
2018-11-06T08:35:42.673Z,2444.00
2018-11-06T08:36:42.741Z,2232.00
2018-11-06T08:37:42.649Z,2016.00
2018-11-06T08:38:42.773Z,2060.00
2018-11-06T08:39:42.627Z,2092.00
2018-11-06T08:40:42.621Z,1948.00
2018-11-06T08:41:42.606Z,2064.00
2018-11-06T08:42:42.595Z,1992.00
2018-11-06T08:43:42.599Z,1968.00
2018-11-06T08:44:42.572Z,2092.00
2018-11-06T08:45:42.562Z,2104.00
2018-11-06T08:46:42.550Z,1900.00
2018-11-06T08:47:42.530Z,1980.00
2018-11-06T08:48:42.532Z,2016.00
2018-11-06T08:49:42.517Z,1884.00
2018-11-06T08:50:42.496Z,1912.00
2018-11-06T08:51:42.488Z,1912.00
2018-11-06T08:52:42.477Z,2136.00
2018-11-06T08:53:42.474Z,2156.00
2018-11-06T08:54:42.530Z,2360.00
2018-11-06T08:55:42.439Z,2336.00
2018-11-06T08:56:42.428Z,1720.00
2018-11-06T08:57:42.418Z,1652.00
2018-11-06T08:58:42.433Z,1572.00
2018-11-06T08:59:42.393Z,1576.00
2018-11-06T09:00:42.391Z,1448.00
2018-11-06T09:01:42.376Z,1424.00
2018-11-06T09:02:42.447Z,1372.00
2018-11-06T09:03:42.364Z,1316.00
2018-11-06T09:04:42.338Z,1332.00
2018-11-06T09:05:42.329Z,1344.00
2018-11-06T09:06:42.318Z,1368.00
2018-11-06T09:07:42.311Z,1416.00
2018-11-06T09:08:42.321Z,1440.00
2018-11-06T09:09:42.291Z,1444.00
2018-11-06T09:10:42.277Z,1484.00
2018-11-06T09:11:42.265Z,1540.00
2018-11-06T09:12:42.249Z,1636.00
2018-11-06T09:13:42.250Z,1680.00
2018-11-06T09:14:42.228Z,1720.00
2018-11-06T09:15:42.220Z,1756.00
2018-11-06T09:16:42.209Z,1800.00
2018-11-06T09:17:42.199Z,1812.00
2018-11-06T09:18:42.199Z,1800.00
2018-11-06T09:19:42.173Z,1828.00
2018-11-06T09:20:42.159Z,1788.00
2018-11-06T09:21:42.156Z,1800.00
2018-11-06T09:22:42.143Z,1748.00
2018-11-06T09:23:42.137Z,1668.00
2018-11-06T09:24:42.121Z,1620.00
2018-11-06T09:25:42.107Z,1556.00
2018-11-06T09:26:42.091Z,1532.00
2018-11-06T09:27:42.080Z,1564.00
2018-11-06T09:28:42.087Z,1556.00
2018-11-06T09:29:42.057Z,1544.00
2018-11-06T09:30:42.052Z,1560.00
2018-11-06T09:31:42.040Z,1508.00
2018-11-06T09:32:42.033Z,1428.00
2018-11-06T09:33:42.028Z,1404.00
2018-11-06T09:34:42.004Z,1388.00
2018-11-06T09:35:41.993Z,1388.00
2018-11-06T09:36:41.979Z,1396.00
2018-11-06T09:37:41.971Z,1372.00
2018-11-06T09:38:41.968Z,1364.00
2018-11-06T09:39:41.968Z,1404.00
2018-11-06T09:40:41.939Z,1436.00
2018-11-06T09:41:41.930Z,1472.00
2018-11-06T09:42:41.914Z,1516.00
2018-11-06T09:43:41.920Z,1540.00
2018-11-06T09:44:41.899Z,1536.00
2018-11-06T09:45:41.881Z,1552.00
2018-11-06T09:46:41.869Z,1516.00
2018-11-06T09:47:41.863Z,1508.00
2018-11-06T09:48:41.850Z,1508.00
2018-11-06T09:49:41.850Z,1496.00
2018-11-06T09:50:41.828Z,1512.00
2018-11-06T09:51:41.811Z,1520.00
2018-11-06T09:52:41.805Z,1548.00
2018-11-06T09:53:41.789Z,1516.00
2018-11-06T09:54:41.790Z,1524.00
2018-11-06T09:55:41.771Z,1520.00
2018-11-06T09:56:41.763Z,1544.00
2018-11-06T09:57:41.751Z,1560.00
2018-11-06T09:58:41.736Z,1588.00
2018-11-06T09:59:41.738Z,1568.00
2018-11-06T10:00:41.714Z,1544.00
2018-11-06T10:01:41.707Z,1504.00
2018-11-06T10:02:41.740Z,1492.00
2018-11-06T10:03:41.692Z,1504.00
2018-11-06T10:04:41.689Z,1500.00
2018-11-06T10:05:41.665Z,1480.00
2018-11-06T10:06:41.803Z,1460.00
2018-11-06T10:07:41.669Z,1468.00
2018-11-06T10:08:41.628Z,1456.00
2018-11-06T10:09:41.629Z,1460.00
2018-11-06T10:10:41.608Z,1444.00
2018-11-06T10:11:41.593Z,1436.00
2018-11-06T10:12:41.590Z,1408.00
2018-11-06T10:13:41.587Z,1368.00
2018-11-06T10:14:41.571Z,1364.00
2018-11-06T10:15:41.588Z,1344.00
2018-11-06T10:16:41.545Z,1288.00
2018-11-06T10:17:41.529Z,1276.00
2018-11-06T10:18:41.523Z,1280.00
2018-11-06T10:19:41.523Z,1300.00
2018-11-06T10:20:41.495Z,1312.00
2018-11-06T10:21:41.485Z,1336.00
2018-11-06T10:22:41.477Z,1376.00
2018-11-06T10:23:41.465Z,1428.00
2018-11-06T10:24:41.470Z,1436.00
2018-11-06T10:25:41.438Z,1444.00
2018-11-06T10:26:41.430Z,1416.00
2018-11-06T10:27:41.420Z,1448.00
2018-11-06T10:28:41.412Z,1452.00
2018-11-06T10:29:41.449Z,1412.00
2018-11-06T10:30:41.440Z,1360.00
2018-11-06T10:31:41.379Z,1300.00
2018-11-06T10:32:41.363Z,1284.00
2018-11-06T10:33:41.356Z,1328.00
2018-11-06T10:34:41.353Z,1276.00
2018-11-06T10:35:41.333Z,1216.00
2018-11-06T10:36:41.370Z,1164.00
2018-11-06T10:37:41.311Z,1176.00
2018-11-06T10:38:41.305Z,1184.00
2018-11-06T10:39:41.305Z,1144.00
2018-11-06T10:40:41.278Z,1172.00
2018-11-06T10:41:41.270Z,1200.00
2018-11-06T10:42:41.258Z,1188.00
2018-11-06T10:43:41.249Z,1204.00
2018-11-06T10:44:41.248Z,1204.00
2018-11-06T10:45:41.220Z,1144.00
2018-11-06T10:46:41.214Z,1160.00
2018-11-06T10:47:41.200Z,1200.00
2018-11-06T10:48:41.190Z,1156.00
2018-11-06T10:49:41.203Z,1172.00
2018-11-06T10:50:41.172Z,1232.00
2018-11-06T10:51:41.167Z,1224.00
2018-11-06T10:52:41.145Z,1208.00
2018-11-06T10:53:41.130Z,1204.00
2018-11-06T10:54:41.138Z,1236.00
2018-11-06T10:55:41.111Z,1240.00
2018-11-06T10:56:41.098Z,1244.00
2018-11-06T10:57:41.086Z,1284.00
2018-11-06T10:58:41.077Z,1356.00
2018-11-06T10:59:41.078Z,1356.00
